메인 페이지
METAR-TAF:

METAR-TAF

공항 :

노르셰핑, 스웨덴

위도: 58-35N, 경도: 016-09E, 고도: 34m

현재 날씨관측

예보는 40분 전, 07:50시(UTC)에 발표되었습니다.
8kt
온도 18°C
습도 88%
기압 1012 hPa
시정 10km 이상
고도 1200ft 상공 구름 많음

METAR: ESSP 230750Z 27008KT 9999 BKN012 18/16 Q1012

시각: 10:30 (08:30 UTC)

예보

예보는 1 시간 43분 전, 06:47시(UTC)에 발표되었습니다.
예보 대상 시간: 23일 06시부터 23일 15시까지 (UTC)
5kt
시정 10km 이상
고도 1500ft 상공 구름 많음
확률 40%
23일 06시부터 23일 09시까지 (UTC)
고도 1000ft 상공 구름 많음

TAF: ESSP 230647Z 2306/2315 27005KT 9999 BKN015 PROB40 2306/2309 BKN010

4,000개 이상의 공항 관측 자료 및 예보 (METAR 및 TAF 보고).

지도상에서 검색 가능한 기상관측소가 노란 점과 빨간 점으로 표시되어 있습니다.

기상관측소 명을 보려면 표시 위로 마우스를 이동하세요.

날씨 관측과 예보를 보려면 클릭하세요.

지도 변경 : 확대하려면 엑스 표시가 있는 녹색 버튼, 축소하려면 빼기 표시가 있는 녹색 버튼, 다음 페이지의 지도를 보려면 녹색 화살표를 클릭하세요.


METAR-TAF: